Terminal Aerodrome Forecast
Issued by NWS Newport/Morehead City, NC

Home | Current Version | Previous Version | Text Only | Print | Product List | Glossary On
Versions: 1 2 3 4 5 6 7 8 9 10 11 12 13 14 15 16 17 18 19
000
FTUS42 KMHX 250322 AAA
TAFEWN
TAF AMD
KEWN 250322Z 2503/2524 VRB03KT P6SM SKC
      TEMPO 2503/2505 1SM BR
     FM250500 00000KT 2SM BR SKC
     FM250700 00000KT 1SM BR BKN005
     FM251300 21008KT P6SM SCT250
     FM251700 21012G22KT P6SM SCT060=

USA.gov is the U.S. government's official web portal to all federal, state and local government web resources and services.